sensor_id;sensor_type;location;lat;lon;timestamp;pressure;altitude;pressure_sealevel;temperature;humidity
46782;BME280;32541;46.298;11.506;2022-07-06T15:40:13;89758.88;;;26.06;33.18
46782;BME280;32541;46.298;11.506;2022-07-06T15:42:46;89747.00;;;26.11;32.93
46782;BME280;32541;46.298;11.506;2022-07-06T15:45:12;89750.78;;;25.88;32.74
46782;BME280;32541;46.298;11.506;2022-07-06T15:47:39;89754.84;;;25.81;33.83
46782;BME280;32541;46.298;11.506;2022-07-06T15:50:05;89741.84;;;26.35;33.03
46782;BME280;32541;46.298;11.506;2022-07-06T15:52:30;89750.06;;;26.61;34.71
46782;BME280;32541;46.298;11.506;2022-07-06T15:54:56;89742.00;;;26.83;32.18
46782;BME280;32541;46.298;11.506;2022-07-06T15:57:21;89745.53;;;26.84;32.56
46782;BME280;32541;46.298;11.506;2022-07-06T15:59:47;89741.47;;;26.95;34.62
46782;BME280;32541;46.298;11.506;2022-07-06T16:02:12;89743.50;;;26.88;33.80
46782;BME280;32541;46.298;11.506;2022-07-06T16:04:38;89734.88;;;26.03;34.38
46782;BME280;32541;46.298;11.506;2022-07-06T16:07:04;89747.41;;;25.95;34.01
46782;BME280;32541;46.298;11.506;2022-07-06T16:09:29;89744.78;;;25.70;34.74
46782;BME280;32541;46.298;11.506;2022-07-06T16:11:55;89741.38;;;26.11;35.64
46782;BME280;32541;46.298;11.506;2022-07-06T16:14:20;89734.84;;;26.38;36.45
46782;BME280;32541;46.298;11.506;2022-07-06T16:16:46;89739.28;;;26.49;36.65
46782;BME280;32541;46.298;11.506;2022-07-06T16:19:12;89741.25;;;26.81;35.29
46782;BME280;32541;46.298;11.506;2022-07-06T16:21:37;89730.97;;;26.99;34.32
46782;BME280;32541;46.298;11.506;2022-07-06T16:24:03;89734.13;;;27.22;34.74
46782;BME280;32541;46.298;11.506;2022-07-06T16:26:29;89732.59;;;26.71;34.68
46782;BME280;32541;46.298;11.506;2022-07-06T16:28:54;89742.34;;;26.64;35.25
46782;BME280;32541;46.298;11.506;2022-07-06T16:31:19;89732.44;;;26.61;35.80
46782;BME280;32541;46.298;11.506;2022-07-06T16:33:45;89733.00;;;26.53;34.69
46782;BME280;32541;46.298;11.506;2022-07-06T16:36:11;89732.56;;;25.93;37.23
46782;BME280;32541;46.298;11.506;2022-07-06T16:38:38;89740.50;;;25.67;37.90
46782;BME280;32541;46.298;11.506;2022-07-06T16:41:04;89728.38;;;25.28;37.70
46782;BME280;32541;46.298;11.506;2022-07-06T16:43:30;89727.25;;;25.10;40.15
46782;BME280;32541;46.298;11.506;2022-07-06T16:45:55;89724.78;;;25.24;39.08
46782;BME280;32541;46.298;11.506;2022-07-06T16:48:21;89731.78;;;25.23;39.86
46782;BME280;32541;46.298;11.506;2022-07-06T16:50:47;89738.44;;;25.06;40.04
46782;BME280;32541;46.298;11.506;2022-07-06T16:53:12;89733.59;;;25.10;41.14
46782;BME280;32541;46.298;11.506;2022-07-06T16:55:38;89729.09;;;25.29;41.19
46782;BME280;32541;46.298;11.506;2022-07-06T16:58:03;89743.16;;;25.27;42.67
46782;BME280;32541;46.298;11.506;2022-07-06T17:00:28;89733.44;;;25.34;43.09
46782;BME280;32541;46.298;11.506;2022-07-06T17:02:55;89739.53;;;25.24;43.26
46782;BME280;32541;46.298;11.506;2022-07-06T17:05:20;89745.50;;;25.38;43.12
46782;BME280;32541;46.298;11.506;2022-07-06T17:07:46;89747.94;;;25.52;43.84
46782;BME280;32541;46.298;11.506;2022-07-06T17:10:11;89751.50;;;25.55;43.85
46782;BME280;32541;46.298;11.506;2022-07-06T17:12:37;89758.81;;;25.36;43.72
46782;BME280;32541;46.298;11.506;2022-07-06T17:15:03;89751.25;;;24.83;45.83
46782;BME280;32541;46.298;11.506;2022-07-06T17:17:28;89764.19;;;24.66;45.80
46782;BME280;32541;46.298;11.506;2022-07-06T17:19:54;89764.50;;;24.51;46.46
46782;BME280;32541;46.298;11.506;2022-07-06T17:22:20;89763.72;;;24.20;46.35
46782;BME280;32541;46.298;11.506;2022-07-06T17:24:46;89775.06;;;24.24;47.14
46782;BME280;32541;46.298;11.506;2022-07-06T17:27:12;89772.94;;;24.23;47.66
46782;BME280;32541;46.298;11.506;2022-07-06T17:29:38;89775.06;;;24.24;47.14
46782;BME280;32541;46.298;11.506;2022-07-06T17:32:04;89773.53;;;24.19;47.72
46782;BME280;32541;46.298;11.506;2022-07-06T17:34:30;89781.50;;;24.03;48.33
46782;BME280;32541;46.298;11.506;2022-07-06T17:36:57;89775.66;;;23.95;47.73
46782;BME280;32541;46.298;11.506;2022-07-06T17:39:22;89770.00;;;23.93;48.76
46782;BME280;32541;46.298;11.506;2022-07-06T17:41:48;89770.47;;;23.86;48.82
46782;BME280;32541;46.298;11.506;2022-07-06T17:44:13;89785.59;;;23.72;49.54
46782;BME280;32541;46.298;11.506;2022-07-06T17:46:39;89791.53;;;23.61;49.20
46782;BME280;32541;46.298;11.506;2022-07-06T17:49:04;89769.59;;;23.79;49.45
46782;BME280;32541;46.298;11.506;2022-07-06T17:51:32;89774.28;;;23.70;49.93
46782;BME280;32541;46.298;11.506;2022-07-06T17:53:57;89790.84;;;23.60;50.12
46782;BME280;32541;46.298;11.506;2022-07-06T17:56:23;89785.34;;;23.41;50.03
46782;BME280;32541;46.298;11.506;2022-07-06T17:58:48;89776.66;;;23.33;50.73
46782;BME280;32541;46.298;11.506;2022-07-06T18:01:14;89785.50;;;23.23;51.00
46782;BME280;32541;46.298;11.506;2022-07-06T18:03:39;89784.78;;;23.22;51.38
46782;BME280;32541;46.298;11.506;2022-07-06T18:06:05;89792.91;;;23.12;51.76
46782;BME280;32541;46.298;11.506;2022-07-06T18:08:30;89795.50;;;23.06;52.59
46782;BME280;32541;46.298;11.506;2022-07-06T18:10:56;89789.38;;;23.12;52.00
46782;BME280;32541;46.298;11.506;2022-07-06T18:13:28;89790.28;;;23.18;52.43
46782;BME280;32541;46.298;11.506;2022-07-06T18:15:55;89788.50;;;23.07;52.13
46782;BME280;32541;46.298;11.506;2022-07-06T18:18:22;89795.50;;;23.06;52.48
46782;BME280;32541;46.298;11.506;2022-07-06T18:20:50;89794.94;;;22.88;53.36
46782;BME280;32541;46.298;11.506;2022-07-06T18:23:17;89799.97;;;22.92;53.50
46782;BME280;32541;46.298;11.506;2022-07-06T18:25:44;89804.31;;;22.75;53.88
46782;BME280;32541;46.298;11.506;2022-07-06T18:28:09;89802.34;;;22.58;53.88
46782;BME280;32541;46.298;11.506;2022-07-06T18:30:44;89812.56;;;22.49;53.48
46782;BME280;32541;46.298;11.506;2022-07-06T18:33:10;89816.34;;;22.58;53.91
46782;BME280;32541;46.298;11.506;2022-07-06T18:35:37;89825.13;;;22.27;54.64
46782;BME280;32541;46.298;11.506;2022-07-06T18:38:06;89818.16;;;22.28;54.71
46782;BME280;32541;46.298;11.506;2022-07-06T18:40:32;89812.03;;;22.33;55.09
46782;BME280;32541;46.298;11.506;2022-07-06T18:42:59;89818.19;;;22.08;55.17
46782;BME280;32541;46.298;11.506;2022-07-06T18:45:25;89817.09;;;21.97;55.82
46782;BME280;32541;46.298;11.506;2022-07-06T18:47:52;89818.97;;;21.91;55.22
46782;BME280;32541;46.298;11.506;2022-07-06T18:50:18;89821.53;;;22.04;54.98
46782;BME280;32541;46.298;11.506;2022-07-06T18:52:43;89824.91;;;22.01;54.88
46782;BME280;32541;46.298;11.506;2022-07-06T18:55:11;89831.25;;;22.01;55.53
46782;BME280;32541;46.298;11.506;2022-07-06T18:57:37;89827.19;;;21.87;55.79
46782;BME280;32541;46.298;11.506;2022-07-06T19:00:04;89824.53;;;21.71;55.90
46782;BME280;32541;46.298;11.506;2022-07-06T19:02:30;89833.16;;;21.77;56.11
46782;BME280;32541;46.298;11.506;2022-07-06T19:04:59;89832.84;;;21.69;56.57
46782;BME280;32541;46.298;11.506;2022-07-06T19:07:26;89834.59;;;21.78;55.90
46782;BME280;32541;46.298;11.506;2022-07-06T19:09:52;89832.56;;;21.61;56.31
46782;BME280;32541;46.298;11.506;2022-07-06T19:12:18;89839.00;;;21.46;56.91
46782;BME280;32541;46.298;11.506;2022-07-06T19:14:44;89842.03;;;21.52;57.28
46782;BME280;32541;46.298;11.506;2022-07-06T19:17:17;89843.03;;;21.41;56.89
46782;BME280;32541;46.298;11.506;2022-07-06T19:19:43;89847.81;;;21.21;58.06
46782;BME280;32541;46.298;11.506;2022-07-06T19:22:09;89846.38;;;21.37;57.45
46782;BME280;32541;46.298;11.506;2022-07-06T19:24:35;89846.88;;;21.32;57.27
46782;BME280;32541;46.298;11.506;2022-07-06T19:27:01;89849.75;;;21.34;57.99
46782;BME280;32541;46.298;11.506;2022-07-06T19:29:27;89853.81;;;21.31;58.46
46782;BME280;32541;46.298;11.506;2022-07-06T19:31:53;89854.56;;;21.14;58.53
46782;BME280;32541;46.298;11.506;2022-07-06T19:34:19;89861.91;;;21.23;58.15
46782;BME280;32541;46.298;11.506;2022-07-06T19:36:45;89861.97;;;21.25;58.39
46782;BME280;32541;46.298;11.506;2022-07-06T19:39:11;89868.63;;;21.16;58.38
46782;BME280;32541;46.298;11.506;2022-07-06T19:41:37;89874.38;;;21.20;57.67
46782;BME280;32541;46.298;11.506;2022-07-06T19:44:03;89880.00;;;21.04;58.55
46782;BME280;32541;46.298;11.506;2022-07-06T19:46:29;89874.75;;;21.12;58.53
46782;BME280;32541;46.298;11.506;2022-07-06T19:48:57;89880.09;;;21.06;58.59
46782;BME280;32541;46.298;11.506;2022-07-06T19:51:23;89883.47;;;21.20;58.60
46782;BME280;32541;46.298;11.506;2022-07-06T19:53:49;89894.06;;;21.06;58.72
46782;BME280;32541;46.298;11.506;2022-07-06T19:56:17;89895.03;;;20.95;60.06
46782;BME280;32541;46.298;11.506;2022-07-06T19:58:43;89896.13;;;20.88;60.26
46782;BME280;32541;46.298;11.506;2022-07-06T20:01:08;89895.63;;;20.76;60.70
46782;BME280;32541;46.298;11.506;2022-07-06T20:03:34;89893.16;;;20.66;61.29
46782;BME280;32541;46.298;11.506;2022-07-06T20:06:00;89891.41;;;20.57;61.17
46782;BME280;32541;46.298;11.506;2022-07-06T20:08:25;89891.03;;;20.49;61.54
46782;BME280;32541;46.298;11.506;2022-07-06T20:10:51;89885.63;;;20.53;61.48
46782;BME280;32541;46.298;11.506;2022-07-06T20:13:18;89889.63;;;20.48;61.96
46782;BME280;32541;46.298;11.506;2022-07-06T20:15:44;89889.84;;;20.21;62.87
46782;BME280;32541;46.298;11.506;2022-07-06T20:18:09;89902.00;;;20.12;63.14
46782;BME280;32541;46.298;11.506;2022-07-06T20:20:35;89904.34;;;20.02;63.80
46782;BME280;32541;46.298;11.506;2022-07-06T20:23:01;89903.94;;;19.91;64.12
46782;BME280;32541;46.298;11.506;2022-07-06T20:25:26;89901.03;;;19.89;63.76
46782;BME280;32541;46.298;11.506;2022-07-06T20:27:51;89903.41;;;19.79;64.48
46782;BME280;32541;46.298;11.506;2022-07-06T20:30:17;89914.63;;;19.81;64.21
46782;BME280;32541;46.298;11.506;2022-07-06T20:32:43;89912.38;;;19.93;64.12
46782;BME280;32541;46.298;11.506;2022-07-06T20:35:09;89912.31;;;19.76;64.65
46782;BME280;32541;46.298;11.506;2022-07-06T20:37:35;89919.31;;;19.61;65.72
46782;BME280;32541;46.298;11.506;2022-07-06T20:40:02;89922.84;;;19.62;65.33
46782;BME280;32541;46.298;11.506;2022-07-06T20:42:27;89919.13;;;19.57;65.35
46782;BME280;32541;46.298;11.506;2022-07-06T20:44:53;89909.69;;;19.64;65.23
46782;BME280;32541;46.298;11.506;2022-07-06T20:47:18;89910.16;;;19.74;64.94
46782;BME280;32541;46.298;11.506;2022-07-06T20:49:44;89920.41;;;19.70;65.42
46782;BME280;32541;46.298;11.506;2022-07-06T20:52:09;89910.22;;;19.76;65.50
46782;BME280;32541;46.298;11.506;2022-07-06T20:54:35;89910.03;;;19.72;65.77
46782;BME280;32541;46.298;11.506;2022-07-06T20:57:04;89912.03;;;19.70;65.57
46782;BME280;32541;46.298;11.506;2022-07-06T20:59:30;89916.06;;;19.51;65.95
46782;BME280;32541;46.298;11.506;2022-07-06T21:01:56;89913.22;;;19.65;65.57
46782;BME280;32541;46.298;11.506;2022-07-06T21:04:21;89922.28;;;19.50;66.71
46782;BME280;32541;46.298;11.506;2022-07-06T21:06:47;89931.13;;;19.30;68.70
46782;BME280;32541;46.298;11.506;2022-07-06T21:09:13;89933.16;;;19.14;70.71
46782;BME280;32541;46.298;11.506;2022-07-06T21:11:38;89928.78;;;18.96;73.39
46782;BME280;32541;46.298;11.506;2022-07-06T21:14:04;89932.72;;;18.91;75.34
46782;BME280;32541;46.298;11.506;2022-07-06T21:16:30;89943.31;;;18.65;77.77
46782;BME280;32541;46.298;11.506;2022-07-06T21:18:55;89946.75;;;18.50;78.81
46782;BME280;32541;46.298;11.506;2022-07-06T21:21:21;89952.59;;;18.42;79.42
46782;BME280;32541;46.298;11.506;2022-07-06T21:23:47;89950.13;;;18.48;79.23
46782;BME280;32541;46.298;11.506;2022-07-06T21:26:12;89952.50;;;18.40;79.39
46782;BME280;32541;46.298;11.506;2022-07-06T21:28:38;89955.28;;;18.40;79.92
46782;BME280;32541;46.298;11.506;2022-07-06T21:31:03;89956.84;;;18.57;78.44
46782;BME280;32541;46.298;11.506;2022-07-06T21:33:29;89952.66;;;18.85;76.63
46782;BME280;32541;46.298;11.506;2022-07-06T21:35:55;89947.31;;;18.75;75.64
46782;BME280;32541;46.298;11.506;2022-07-06T21:38:21;89950.31;;;18.79;74.68
46782;BME280;32541;46.298;11.506;2022-07-06T21:40:46;89957.28;;;18.94;74.27
46782;BME280;32541;46.298;11.506;2022-07-06T21:43:12;89953.47;;;18.88;72.90
46782;BME280;32541;46.298;11.506;2022-07-06T21:45:38;89969.69;;;18.77;73.19
46782;BME280;32541;46.298;11.506;2022-07-06T21:48:03;89969.75;;;18.23;81.65
46782;BME280;32541;46.298;11.506;2022-07-06T21:50:29;89976.22;;;18.00;82.85
46782;BME280;32541;46.298;11.506;2022-07-06T21:52:55;89976.91;;;17.73;84.09
46782;BME280;32541;46.298;11.506;2022-07-06T21:55:20;89975.50;;;18.00;83.09
46782;BME280;32541;46.298;11.506;2022-07-06T21:57:46;89979.13;;;18.02;83.22
46782;BME280;32541;46.298;11.506;2022-07-06T22:00:12;89984.13;;;17.79;83.15
46782;BME280;32541;46.298;11.506;2022-07-06T22:02:38;89975.53;;;17.36;83.14
46782;BME280;32541;46.298;11.506;2022-07-06T22:05:04;89964.34;;;17.72;81.06
46782;BME280;32541;46.298;11.506;2022-07-06T22:07:30;89965.91;;;17.75;81.39
46782;BME280;32541;46.298;11.506;2022-07-06T22:09:56;89971.25;;;17.85;81.60
46782;BME280;32541;46.298;11.506;2022-07-06T22:12:21;89968.19;;;17.93;79.74
46782;BME280;32541;46.298;11.506;2022-07-06T22:14:46;89982.50;;;18.01;78.13
46782;BME280;32541;46.298;11.506;2022-07-06T22:17:12;89983.84;;;18.00;75.20
46782;BME280;32541;46.298;11.506;2022-07-06T22:19:38;89978.41;;;18.02;72.91
46782;BME280;32541;46.298;11.506;2022-07-06T22:22:04;89983.81;;;17.72;73.36
46782;BME280;32541;46.298;11.506;2022-07-06T22:24:29;89974.75;;;17.72;73.38
46782;BME280;32541;46.298;11.506;2022-07-06T22:26:55;89986.78;;;17.38;74.10
46782;BME280;32541;46.298;11.506;2022-07-06T22:29:21;89986.09;;;17.26;75.42
46782;BME280;32541;46.298;11.506;2022-07-06T22:31:46;89998.56;;;17.25;75.49
46782;BME280;32541;46.298;11.506;2022-07-06T22:34:12;89991.91;;;17.30;75.56
46782;BME280;32541;46.298;11.506;2022-07-06T22:36:37;89984.00;;;17.38;74.52
46782;BME280;32541;46.298;11.506;2022-07-06T22:39:04;89987.50;;;17.38;74.25
46782;BME280;32541;46.298;11.506;2022-07-06T22:41:29;89993.06;;;17.38;74.76
46782;BME280;32541;46.298;11.506;2022-07-06T22:43:56;89999.19;;;17.23;75.94
46782;BME280;32541;46.298;11.506;2022-07-06T22:46:23;89998.59;;;16.28;77.45
46782;BME280;32541;46.298;11.506;2022-07-06T22:48:49;90004.97;;;16.30;78.11
46782;BME280;32541;46.298;11.506;2022-07-06T22:51:15;89999.28;;;16.51;77.11
46782;BME280;32541;46.298;11.506;2022-07-06T22:53:41;89991.06;;;16.65;76.17
46782;BME280;32541;46.298;11.506;2022-07-06T22:56:08;89988.41;;;16.67;75.63
46782;BME280;32541;46.298;11.506;2022-07-06T22:58:34;89992.25;;;16.74;75.33
46782;BME280;32541;46.298;11.506;2022-07-06T23:01:02;89993.19;;;16.78;76.06
46782;BME280;32541;46.298;11.506;2022-07-06T23:03:28;90000.53;;;16.85;75.73
46782;BME280;32541;46.298;11.506;2022-07-06T23:05:53;90000.81;;;16.78;75.85
46782;BME280;32541;46.298;11.506;2022-07-06T23:08:19;90002.25;;;16.79;75.26
46782;BME280;32541;46.298;11.506;2022-07-06T23:10:44;89995.47;;;16.82;74.96
46782;BME280;32541;46.298;11.506;2022-07-06T23:13:10;89994.66;;;16.79;75.00
46782;BME280;32541;46.298;11.506;2022-07-06T23:15:36;89991.09;;;16.42;77.50
46782;BME280;32541;46.298;11.506;2022-07-06T23:18:02;89994.16;;;16.23;78.58
46782;BME280;32541;46.298;11.506;2022-07-06T23:20:28;89995.09;;;16.39;78.01
46782;BME280;32541;46.298;11.506;2022-07-06T23:22:54;89987.47;;;16.39;78.09
46782;BME280;32541;46.298;11.506;2022-07-06T23:25:20;89993.56;;;16.24;77.81
46782;BME280;32541;46.298;11.506;2022-07-06T23:27:46;89992.31;;;16.39;77.71
46782;BME280;32541;46.298;11.506;2022-07-06T23:30:13;89993.16;;;16.41;77.29
46782;BME280;32541;46.298;11.506;2022-07-06T23:32:39;89993.88;;;16.42;77.62
46782;BME280;32541;46.298;11.506;2022-07-06T23:35:05;89989.63;;;16.52;77.26
46782;BME280;32541;46.298;11.506;2022-07-06T23:37:32;89981.78;;;16.49;76.72
46782;BME280;32541;46.298;11.506;2022-07-06T23:39:58;89990.72;;;16.47;76.82
46782;BME280;32541;46.298;11.506;2022-07-06T23:42:23;89984.81;;;16.53;76.53
46782;BME280;32541;46.298;11.506;2022-07-06T23:44:49;89980.56;;;16.63;76.16
46782;BME280;32541;46.298;11.506;2022-07-06T23:47:14;89971.16;;;16.57;75.84
46782;BME280;32541;46.298;11.506;2022-07-06T23:49:40;89975.88;;;16.54;75.98
46782;BME280;32541;46.298;11.506;2022-07-06T23:52:05;89969.50;;;16.40;76.79
46782;BME280;32541;46.298;11.506;2022-07-06T23:54:30;89961.94;;;16.29;77.67
46782;BME280;32541;46.298;11.506;2022-07-06T23:56:56;89955.56;;;16.15;78.46
46782;BME280;32541;46.298;11.506;2022-07-06T23:59:22;89957.13;;;16.18;78.00
